sensor_id;sensor_type;location;lat;lon;timestamp;temperature;humidity
21815;DHT22;11069;48.988;8.450;2022-10-26T00:02:23;14.10;99.90
21815;DHT22;11069;48.988;8.450;2022-10-26T00:04:49;14.10;99.90
21815;DHT22;11069;48.988;8.450;2022-10-26T00:07:14;14.10;99.90
21815;DHT22;11069;48.988;8.450;2022-10-26T00:09:40;14.00;99.90
21815;DHT22;11069;48.988;8.450;2022-10-26T00:12:05;14.00;99.90
21815;DHT22;11069;48.988;8.450;2022-10-26T00:14:31;13.90;99.90
21815;DHT22;11069;48.988;8.450;2022-10-26T00:17:00;13.90;99.90
21815;DHT22;11069;48.988;8.450;2022-10-26T00:19:26;13.80;99.90
21815;DHT22;11069;48.988;8.450;2022-10-26T00:21:52;13.70;99.90
21815;DHT22;11069;48.988;8.450;2022-10-26T00:24:17;13.70;99.90
21815;DHT22;11069;48.988;8.450;2022-10-26T00:26:43;13.70;99.90
21815;DHT22;11069;48.988;8.450;2022-10-26T00:29:10;13.60;99.90
21815;DHT22;11069;48.988;8.450;2022-10-26T00:31:38;13.60;99.90
21815;DHT22;11069;48.988;8.450;2022-10-26T00:34:04;13.50;99.90
21815;DHT22;11069;48.988;8.450;2022-10-26T00:36:30;13.40;99.90
21815;DHT22;11069;48.988;8.450;2022-10-26T00:38:56;13.40;99.90
21815;DHT22;11069;48.988;8.450;2022-10-26T00:41:32;13.30;99.90
21815;DHT22;11069;48.988;8.450;2022-10-26T00:43:59;13.30;99.90
21815;DHT22;11069;48.988;8.450;2022-10-26T00:46:34;13.30;99.90
21815;DHT22;11069;48.988;8.450;2022-10-26T00:49:13;13.30;99.90
21815;DHT22;11069;48.988;8.450;2022-10-26T00:51:52;13.30;99.90
21815;DHT22;11069;48.988;8.450;2022-10-26T00:54:20;13.30;99.90
21815;DHT22;11069;48.988;8.450;2022-10-26T00:56:48;13.30;99.90
21815;DHT22;11069;48.988;8.450;2022-10-26T00:59:16;13.40;99.90
21815;DHT22;11069;48.988;8.450;2022-10-26T01:01:44;13.50;99.90
21815;DHT22;11069;48.988;8.450;2022-10-26T01:04:12;13.50;99.90
21815;DHT22;11069;48.988;8.450;2022-10-26T01:06:39;13.40;99.90
21815;DHT22;11069;48.988;8.450;2022-10-26T01:09:06;13.30;99.90
21815;DHT22;11069;48.988;8.450;2022-10-26T01:11:32;13.40;99.90
21815;DHT22;11069;48.988;8.450;2022-10-26T01:13:59;13.40;99.90
21815;DHT22;11069;48.988;8.450;2022-10-26T01:27:32;13.20;99.90
21815;DHT22;11069;48.988;8.450;2022-10-26T01:33:07;13.20;99.90
21815;DHT22;11069;48.988;8.450;2022-10-26T01:41:03;13.20;99.90
21815;DHT22;11069;48.988;8.450;2022-10-26T01:43:34;13.10;99.90
21815;DHT22;11069;48.988;8.450;2022-10-26T01:46:03;12.90;99.90
21815;DHT22;11069;48.988;8.450;2022-10-26T01:48:30;12.80;99.90
21815;DHT22;11069;48.988;8.450;2022-10-26T01:50:57;13.00;99.90
21815;DHT22;11069;48.988;8.450;2022-10-26T01:53:25;13.10;99.90
21815;DHT22;11069;48.988;8.450;2022-10-26T01:55:56;13.00;99.90
21815;DHT22;11069;48.988;8.450;2022-10-26T01:59:02;13.00;99.90
21815;DHT22;11069;48.988;8.450;2022-10-26T02:07:09;12.80;99.90
21815;DHT22;11069;48.988;8.450;2022-10-26T02:15:22;12.70;99.90
21815;DHT22;11069;48.988;8.450;2022-10-26T02:17:58;12.80;99.90
21815;DHT22;11069;48.988;8.450;2022-10-26T02:20:32;12.80;99.90
21815;DHT22;11069;48.988;8.450;2022-10-26T02:23:00;12.70;99.90
21815;DHT22;11069;48.988;8.450;2022-10-26T02:25:31;12.60;99.90
21815;DHT22;11069;48.988;8.450;2022-10-26T02:28:05;12.60;99.90
21815;DHT22;11069;48.988;8.450;2022-10-26T02:30:32;12.70;99.90
21815;DHT22;11069;48.988;8.450;2022-10-26T02:33:00;12.70;99.90
21815;DHT22;11069;48.988;8.450;2022-10-26T02:35:30;12.80;99.90
21815;DHT22;11069;48.988;8.450;2022-10-26T02:37:59;12.80;99.90
21815;DHT22;11069;48.988;8.450;2022-10-26T02:40:26;12.70;99.90
21815;DHT22;11069;48.988;8.450;2022-10-26T02:42:54;12.60;99.90
21815;DHT22;11069;48.988;8.450;2022-10-26T02:45:24;12.50;99.90
21815;DHT22;11069;48.988;8.450;2022-10-26T02:47:51;12.50;99.90
21815;DHT22;11069;48.988;8.450;2022-10-26T02:50:19;12.50;99.90
21815;DHT22;11069;48.988;8.450;2022-10-26T02:55:23;12.40;99.90
21815;DHT22;11069;48.988;8.450;2022-10-26T02:58:00;12.30;99.90
21815;DHT22;11069;48.988;8.450;2022-10-26T03:00:28;12.30;99.90
21815;DHT22;11069;48.988;8.450;2022-10-26T03:02:56;12.30;99.90
21815;DHT22;11069;48.988;8.450;2022-10-26T03:05:27;12.40;99.90
21815;DHT22;11069;48.988;8.450;2022-10-26T03:07:54;12.30;99.90
21815;DHT22;11069;48.988;8.450;2022-10-26T03:10:20;12.30;99.90
21815;DHT22;11069;48.988;8.450;2022-10-26T03:12:46;12.30;99.90
21815;DHT22;11069;48.988;8.450;2022-10-26T03:15:12;12.30;99.90
21815;DHT22;11069;48.988;8.450;2022-10-26T03:17:37;12.30;99.90
21815;DHT22;11069;48.988;8.450;2022-10-26T03:20:07;12.30;99.90
21815;DHT22;11069;48.988;8.450;2022-10-26T03:22:32;12.30;99.90
21815;DHT22;11069;48.988;8.450;2022-10-26T03:24:58;12.30;99.90
21815;DHT22;11069;48.988;8.450;2022-10-26T03:27:23;12.30;99.90
21815;DHT22;11069;48.988;8.450;2022-10-26T03:29:49;12.30;99.90
21815;DHT22;11069;48.988;8.450;2022-10-26T03:32:14;12.30;99.90
21815;DHT22;11069;48.988;8.450;2022-10-26T03:34:40;12.40;99.90
21815;DHT22;11069;48.988;8.450;2022-10-26T03:37:06;12.40;99.90
21815;DHT22;11069;48.988;8.450;2022-10-26T03:39:31;12.50;99.90
21815;DHT22;11069;48.988;8.450;2022-10-26T03:41:57;12.40;99.90
21815;DHT22;11069;48.988;8.450;2022-10-26T03:44:22;12.40;99.90
21815;DHT22;11069;48.988;8.450;2022-10-26T03:46:48;12.40;99.90
21815;DHT22;11069;48.988;8.450;2022-10-26T03:49:13;12.50;99.90
21815;DHT22;11069;48.988;8.450;2022-10-26T03:51:39;12.50;99.90
21815;DHT22;11069;48.988;8.450;2022-10-26T03:54:05;12.50;99.90
21815;DHT22;11069;48.988;8.450;2022-10-26T03:56:30;12.40;99.90
21815;DHT22;11069;48.988;8.450;2022-10-26T03:58:56;12.40;99.90
21815;DHT22;11069;48.988;8.450;2022-10-26T04:01:22;12.40;99.90
21815;DHT22;11069;48.988;8.450;2022-10-26T04:03:47;12.30;99.90
21815;DHT22;11069;48.988;8.450;2022-10-26T04:06:13;12.40;99.90
21815;DHT22;11069;48.988;8.450;2022-10-26T04:08:38;12.40;99.90
21815;DHT22;11069;48.988;8.450;2022-10-26T04:11:04;12.30;99.90
21815;DHT22;11069;48.988;8.450;2022-10-26T04:13:30;12.20;99.90
21815;DHT22;11069;48.988;8.450;2022-10-26T04:15:56;12.20;99.90
21815;DHT22;11069;48.988;8.450;2022-10-26T04:18:22;12.20;99.90
21815;DHT22;11069;48.988;8.450;2022-10-26T04:20:47;12.20;99.90
21815;DHT22;11069;48.988;8.450;2022-10-26T04:23:15;12.30;99.90
21815;DHT22;11069;48.988;8.450;2022-10-26T04:25:41;12.40;99.90
21815;DHT22;11069;48.988;8.450;2022-10-26T04:28:07;12.40;99.90
21815;DHT22;11069;48.988;8.450;2022-10-26T04:30:34;12.40;99.90
21815;DHT22;11069;48.988;8.450;2022-10-26T04:33:00;12.40;99.90
21815;DHT22;11069;48.988;8.450;2022-10-26T04:35:26;12.50;99.90
21815;DHT22;11069;48.988;8.450;2022-10-26T04:37:59;12.50;99.90
21815;DHT22;11069;48.988;8.450;2022-10-26T04:40:26;12.50;99.90
21815;DHT22;11069;48.988;8.450;2022-10-26T04:42:52;12.50;99.90
21815;DHT22;11069;48.988;8.450;2022-10-26T04:45:18;12.50;99.90
21815;DHT22;11069;48.988;8.450;2022-10-26T04:47:43;12.50;99.90
21815;DHT22;11069;48.988;8.450;2022-10-26T04:50:10;12.50;99.90
21815;DHT22;11069;48.988;8.450;2022-10-26T04:52:36;12.40;99.90
21815;DHT22;11069;48.988;8.450;2022-10-26T04:55:03;12.40;99.90
21815;DHT22;11069;48.988;8.450;2022-10-26T04:57:33;12.50;99.90
21815;DHT22;11069;48.988;8.450;2022-10-26T05:00:00;12.60;99.90
21815;DHT22;11069;48.988;8.450;2022-10-26T05:02:29;12.60;99.90
21815;DHT22;11069;48.988;8.450;2022-10-26T05:04:55;12.70;99.90
21815;DHT22;11069;48.988;8.450;2022-10-26T05:07:20;12.60;99.90
21815;DHT22;11069;48.988;8.450;2022-10-26T05:09:46;12.70;99.90
21815;DHT22;11069;48.988;8.450;2022-10-26T05:12:12;12.60;99.90
21815;DHT22;11069;48.988;8.450;2022-10-26T05:14:37;12.60;99.90
21815;DHT22;11069;48.988;8.450;2022-10-26T05:17:03;12.70;99.90
21815;DHT22;11069;48.988;8.450;2022-10-26T05:19:29;12.70;99.90
21815;DHT22;11069;48.988;8.450;2022-10-26T05:21:54;12.70;99.90
21815;DHT22;11069;48.988;8.450;2022-10-26T05:24:20;12.70;99.90
21815;DHT22;11069;48.988;8.450;2022-10-26T05:26:45;12.80;99.90
21815;DHT22;11069;48.988;8.450;2022-10-26T05:29:11;12.80;99.90
21815;DHT22;11069;48.988;8.450;2022-10-26T05:31:36;12.90;99.90
21815;DHT22;11069;48.988;8.450;2022-10-26T05:34:02;12.80;99.90
21815;DHT22;11069;48.988;8.450;2022-10-26T05:36:31;12.80;99.90
21815;DHT22;11069;48.988;8.450;2022-10-26T05:38:57;12.80;99.90
21815;DHT22;11069;48.988;8.450;2022-10-26T05:41:23;12.70;99.90
21815;DHT22;11069;48.988;8.450;2022-10-26T05:43:49;12.80;99.90
21815;DHT22;11069;48.988;8.450;2022-10-26T05:46:14;12.80;99.90
21815;DHT22;11069;48.988;8.450;2022-10-26T05:48:40;12.80;99.90
21815;DHT22;11069;48.988;8.450;2022-10-26T05:51:06;12.80;99.90
21815;DHT22;11069;48.988;8.450;2022-10-26T05:53:31;12.70;99.90
21815;DHT22;11069;48.988;8.450;2022-10-26T05:55:57;12.60;99.90
21815;DHT22;11069;48.988;8.450;2022-10-26T05:58:23;12.60;99.90
21815;DHT22;11069;48.988;8.450;2022-10-26T06:03:24;12.60;99.90
21815;DHT22;11069;48.988;8.450;2022-10-26T06:05:54;12.70;99.90
21815;DHT22;11069;48.988;8.450;2022-10-26T06:08:22;12.70;99.90
21815;DHT22;11069;48.988;8.450;2022-10-26T06:10:48;12.70;99.90
21815;DHT22;11069;48.988;8.450;2022-10-26T06:13:14;12.70;99.90
21815;DHT22;11069;48.988;8.450;2022-10-26T06:24:07;12.70;99.90
21815;DHT22;11069;48.988;8.450;2022-10-26T06:31:44;12.80;99.90
21815;DHT22;11069;48.988;8.450;2022-10-26T06:34:11;12.70;99.90
21815;DHT22;11069;48.988;8.450;2022-10-26T06:36:40;12.80;99.90
21815;DHT22;11069;48.988;8.450;2022-10-26T06:39:09;12.80;99.90
21815;DHT22;11069;48.988;8.450;2022-10-26T06:41:36;12.80;99.90
21815;DHT22;11069;48.988;8.450;2022-10-26T06:44:03;12.80;99.90
21815;DHT22;11069;48.988;8.450;2022-10-26T06:54:50;13.00;99.90
21815;DHT22;11069;48.988;8.450;2022-10-26T06:57:21;13.10;99.90
21815;DHT22;11069;48.988;8.450;2022-10-26T07:02:44;13.20;99.90
21815;DHT22;11069;48.988;8.450;2022-10-26T07:05:09;13.30;99.90
21815;DHT22;11069;48.988;8.450;2022-10-26T07:07:41;13.30;99.90
21815;DHT22;11069;48.988;8.450;2022-10-26T07:10:07;13.30;99.90
21815;DHT22;11069;48.988;8.450;2022-10-26T07:12:33;13.40;99.90
21815;DHT22;11069;48.988;8.450;2022-10-26T07:15:00;13.40;99.90
21815;DHT22;11069;48.988;8.450;2022-10-26T07:17:25;13.30;99.90
21815;DHT22;11069;48.988;8.450;2022-10-26T07:19:53;13.40;99.90
21815;DHT22;11069;48.988;8.450;2022-10-26T07:22:19;13.50;99.90
21815;DHT22;11069;48.988;8.450;2022-10-26T07:24:44;13.50;99.90
21815;DHT22;11069;48.988;8.450;2022-10-26T07:27:14;13.70;99.90
21815;DHT22;11069;48.988;8.450;2022-10-26T07:29:39;13.90;99.90
21815;DHT22;11069;48.988;8.450;2022-10-26T07:32:05;14.10;99.90
21815;DHT22;11069;48.988;8.450;2022-10-26T07:34:31;14.10;99.90
21815;DHT22;11069;48.988;8.450;2022-10-26T07:36:58;14.20;99.90
21815;DHT22;11069;48.988;8.450;2022-10-26T07:39:24;14.10;99.90
21815;DHT22;11069;48.988;8.450;2022-10-26T07:41:49;14.10;99.90
21815;DHT22;11069;48.988;8.450;2022-10-26T07:44:15;14.20;99.90
21815;DHT22;11069;48.988;8.450;2022-10-26T07:46:41;14.20;99.90
21815;DHT22;11069;48.988;8.450;2022-10-26T07:49:06;14.40;99.90
21815;DHT22;11069;48.988;8.450;2022-10-26T07:51:32;14.50;99.90
21815;DHT22;11069;48.988;8.450;2022-10-26T07:53:57;14.60;99.90
21815;DHT22;11069;48.988;8.450;2022-10-26T07:56:23;14.70;99.90
21815;DHT22;11069;48.988;8.450;2022-10-26T07:58:52;14.90;99.90
21815;DHT22;11069;48.988;8.450;2022-10-26T08:01:18;14.90;99.90
21815;DHT22;11069;48.988;8.450;2022-10-26T08:03:43;15.00;99.90
21815;DHT22;11069;48.988;8.450;2022-10-26T08:06:09;15.10;99.90
21815;DHT22;11069;48.988;8.450;2022-10-26T08:08:36;15.20;99.90
21815;DHT22;11069;48.988;8.450;2022-10-26T08:11:02;15.40;99.90
21815;DHT22;11069;48.988;8.450;2022-10-26T08:13:28;15.30;99.90
21815;DHT22;11069;48.988;8.450;2022-10-26T08:15:58;15.40;99.90
21815;DHT22;11069;48.988;8.450;2022-10-26T08:18:26;15.40;99.90
21815;DHT22;11069;48.988;8.450;2022-10-26T08:20:51;15.50;99.90
21815;DHT22;11069;48.988;8.450;2022-10-26T08:23:17;15.60;99.90
21815;DHT22;11069;48.988;8.450;2022-10-26T08:25:43;15.60;99.90
21815;DHT22;11069;48.988;8.450;2022-10-26T08:28:08;15.70;99.90
21815;DHT22;11069;48.988;8.450;2022-10-26T08:30:34;15.80;99.90
21815;DHT22;11069;48.988;8.450;2022-10-26T08:33:01;15.90;99.90
21815;DHT22;11069;48.988;8.450;2022-10-26T08:35:28;15.90;99.90
21815;DHT22;11069;48.988;8.450;2022-10-26T08:37:54;16.00;99.90
21815;DHT22;11069;48.988;8.450;2022-10-26T08:40:30;16.10;99.90
21815;DHT22;11069;48.988;8.450;2022-10-26T08:43:45;16.20;99.90
21815;DHT22;11069;48.988;8.450;2022-10-26T08:46:02;16.30;99.90
21815;DHT22;11069;48.988;8.450;2022-10-26T08:48:33;16.20;99.90
21815;DHT22;11069;48.988;8.450;2022-10-26T08:51:22;16.10;99.90
21815;DHT22;11069;48.988;8.450;2022-10-26T08:53:58;16.10;99.90
21815;DHT22;11069;48.988;8.450;2022-10-26T08:56:36;16.10;99.90
21815;DHT22;11069;48.988;8.450;2022-10-26T08:59:49;16.10;99.90
21815;DHT22;11069;48.988;8.450;2022-10-26T09:02:15;16.10;99.90
21815;DHT22;11069;48.988;8.450;2022-10-26T09:04:41;16.10;99.90
21815;DHT22;11069;48.988;8.450;2022-10-26T09:07:11;16.20;99.90
21815;DHT22;11069;48.988;8.450;2022-10-26T09:26:32;19.10;99.90
21815;DHT22;11069;48.988;8.450;2022-10-26T09:29:03;19.20;99.90
21815;DHT22;11069;48.988;8.450;2022-10-26T09:31:39;19.60;99.90
21815;DHT22;11069;48.988;8.450;2022-10-26T09:34:06;19.90;99.90
21815;DHT22;11069;48.988;8.450;2022-10-26T09:36:32;20.40;99.90
21815;DHT22;11069;48.988;8.450;2022-10-26T09:39:12;20.70;99.90
21815;DHT22;11069;48.988;8.450;2022-10-26T09:41:46;20.80;99.90
21815;DHT22;11069;48.988;8.450;2022-10-26T09:44:18;20.80;99.90
21815;DHT22;11069;48.988;8.450;2022-10-26T09:47:03;20.90;99.90
21815;DHT22;11069;48.988;8.450;2022-10-26T09:49:48;20.90;99.90
21815;DHT22;11069;48.988;8.450;2022-10-26T09:52:15;20.90;99.90
21815;DHT22;11069;48.988;8.450;2022-10-26T09:54:41;20.90;99.90
21815;DHT22;11069;48.988;8.450;2022-10-26T09:57:07;20.80;99.90
21815;DHT22;11069;48.988;8.450;2022-10-26T09:59:37;21.10;99.90
21815;DHT22;11069;48.988;8.450;2022-10-26T10:05:01;21.60;99.90
21815;DHT22;11069;48.988;8.450;2022-10-26T10:07:27;21.90;99.90
21815;DHT22;11069;48.988;8.450;2022-10-26T10:10:11;22.10;99.90
21815;DHT22;11069;48.988;8.450;2022-10-26T10:12:39;22.80;99.90
21815;DHT22;11069;48.988;8.450;2022-10-26T10:15:17;22.30;99.90
21815;DHT22;11069;48.988;8.450;2022-10-26T10:17:47;21.70;99.90
21815;DHT22;11069;48.988;8.450;2022-10-26T10:20:18;21.50;99.90
21815;DHT22;11069;48.988;8.450;2022-10-26T10:22:55;20.90;99.90
21815;DHT22;11069;48.988;8.450;2022-10-26T10:25:31;20.60;99.90
21815;DHT22;11069;48.988;8.450;2022-10-26T10:27:57;20.70;99.90
21815;DHT22;11069;48.988;8.450;2022-10-26T10:30:28;21.40;99.90
21815;DHT22;11069;48.988;8.450;2022-10-26T10:33:12;21.60;99.90
21815;DHT22;11069;48.988;8.450;2022-10-26T10:35:45;21.70;99.90
21815;DHT22;11069;48.988;8.450;2022-10-26T10:38:16;21.50;99.90
21815;DHT22;11069;48.988;8.450;2022-10-26T10:40:49;21.20;99.90
21815;DHT22;11069;48.988;8.450;2022-10-26T10:43:15;21.00;99.90
21815;DHT22;11069;48.988;8.450;2022-10-26T10:45:46;21.10;99.90
21815;DHT22;11069;48.988;8.450;2022-10-26T10:48:24;20.80;99.90
21815;DHT22;11069;48.988;8.450;2022-10-26T10:53:45;20.60;99.90
21815;DHT22;11069;48.988;8.450;2022-10-26T10:56:26;20.60;99.90
21815;DHT22;11069;48.988;8.450;2022-10-26T11:01:39;21.20;99.90
21815;DHT22;11069;48.988;8.450;2022-10-26T11:04:33;21.90;99.90
21815;DHT22;11069;48.988;8.450;2022-10-26T11:07:03;22.30;99.90
21815;DHT22;11069;48.988;8.450;2022-10-26T11:09:33;22.50;99.90
21815;DHT22;11069;48.988;8.450;2022-10-26T11:12:06;22.60;99.90
21815;DHT22;11069;48.988;8.450;2022-10-26T11:14:42;22.60;99.90
21815;DHT22;11069;48.988;8.450;2022-10-26T11:17:22;22.60;99.90
21815;DHT22;11069;48.988;8.450;2022-10-26T11:20:24;22.80;99.90
21815;DHT22;11069;48.988;8.450;2022-10-26T11:25:24;22.10;99.90
21815;DHT22;11069;48.988;8.450;2022-10-26T11:30:26;21.60;99.90
21815;DHT22;11069;48.988;8.450;2022-10-26T11:41:22;21.80;99.90
21815;DHT22;11069;48.988;8.450;2022-10-26T11:43:49;21.70;99.90
21815;DHT22;11069;48.988;8.450;2022-10-26T11:46:31;22.00;99.90
21815;DHT22;11069;48.988;8.450;2022-10-26T11:51:47;23.10;99.90
21815;DHT22;11069;48.988;8.450;2022-10-26T11:54:46;23.60;99.90
21815;DHT22;11069;48.988;8.450;2022-10-26T11:57:14;24.00;99.90
21815;DHT22;11069;48.988;8.450;2022-10-26T11:59:53;24.50;99.90
21815;DHT22;11069;48.988;8.450;2022-10-26T12:02:24;24.80;99.90
21815;DHT22;11069;48.988;8.450;2022-10-26T12:05:03;25.00;99.90
21815;DHT22;11069;48.988;8.450;2022-10-26T12:07:32;25.10;99.90
21815;DHT22;11069;48.988;8.450;2022-10-26T12:10:01;24.90;99.90
21815;DHT22;11069;48.988;8.450;2022-10-26T12:12:51;24.30;99.90
21815;DHT22;11069;48.988;8.450;2022-10-26T12:18:05;24.00;99.90
21815;DHT22;11069;48.988;8.450;2022-10-26T12:21:00;23.60;99.90
21815;DHT22;11069;48.988;8.450;2022-10-26T12:23:33;24.00;99.90
21815;DHT22;11069;48.988;8.450;2022-10-26T12:34:03;23.40;99.90
21815;DHT22;11069;48.988;8.450;2022-10-26T12:42:08;23.40;99.90
21815;DHT22;11069;48.988;8.450;2022-10-26T12:47:01;23.40;99.90
21815;DHT22;11069;48.988;8.450;2022-10-26T12:52:52;24.20;99.90
21815;DHT22;11069;48.988;8.450;2022-10-26T13:03:45;24.90;99.00
21815;DHT22;11069;48.988;8.450;2022-10-26T13:06:47;24.80;99.00
21815;DHT22;11069;48.988;8.450;2022-10-26T13:09:25;24.50;99.20
21815;DHT22;11069;48.988;8.450;2022-10-26T13:11:54;24.50;99.20
21815;DHT22;11069;48.988;8.450;2022-10-26T13:14:27;24.80;99.60
21815;DHT22;11069;48.988;8.450;2022-10-26T13:16:54;25.30;99.00
21815;DHT22;11069;48.988;8.450;2022-10-26T13:19:44;25.30;98.30
21815;DHT22;11069;48.988;8.450;2022-10-26T13:22:17;25.40;97.60
21815;DHT22;11069;48.988;8.450;2022-10-26T13:25:15;24.80;98.30
21815;DHT22;11069;48.988;8.450;2022-10-26T13:27:44;24.60;99.10
21815;DHT22;11069;48.988;8.450;2022-10-26T13:32:58;25.50;98.50
21815;DHT22;11069;48.988;8.450;2022-10-26T13:35:25;26.10;96.50
21815;DHT22;11069;48.988;8.450;2022-10-26T13:37:53;26.30;96.30
21815;DHT22;11069;48.988;8.450;2022-10-26T13:40:25;26.00;96.70
21815;DHT22;11069;48.988;8.450;2022-10-26T13:42:54;25.80;96.80
21815;DHT22;11069;48.988;8.450;2022-10-26T13:45:25;25.80;96.90
21815;DHT22;11069;48.988;8.450;2022-10-26T13:48:30;26.10;96.70
21815;DHT22;11069;48.988;8.450;2022-10-26T13:50:59;26.40;96.70
21815;DHT22;11069;48.988;8.450;2022-10-26T13:53:37;25.90;96.20
21815;DHT22;11069;48.988;8.450;2022-10-26T13:56:16;25.50;97.00
21815;DHT22;11069;48.988;8.450;2022-10-26T13:58:51;25.20;97.50
21815;DHT22;11069;48.988;8.450;2022-10-26T14:01:20;25.00;97.60
21815;DHT22;11069;48.988;8.450;2022-10-26T14:03:47;25.30;97.20
21815;DHT22;11069;48.988;8.450;2022-10-26T14:08:55;25.50;96.10
21815;DHT22;11069;48.988;8.450;2022-10-26T14:11:30;24.90;96.80
21815;DHT22;11069;48.988;8.450;2022-10-26T14:13:57;24.40;98.40
21815;DHT22;11069;48.988;8.450;2022-10-26T14:16:28;24.00;97.90
21815;DHT22;11069;48.988;8.450;2022-10-26T14:18:54;23.80;98.50
21815;DHT22;11069;48.988;8.450;2022-10-26T14:21:21;23.80;99.60
21815;DHT22;11069;48.988;8.450;2022-10-26T14:23:56;23.80;99.60
21815;DHT22;11069;48.988;8.450;2022-10-26T14:28:54;23.30;99.90
21815;DHT22;11069;48.988;8.450;2022-10-26T14:31:32;23.30;99.90
21815;DHT22;11069;48.988;8.450;2022-10-26T14:33:59;23.10;99.90
21815;DHT22;11069;48.988;8.450;2022-10-26T14:36:36;22.80;99.90
21815;DHT22;11069;48.988;8.450;2022-10-26T14:39:08;22.30;99.90
21815;DHT22;11069;48.988;8.450;2022-10-26T14:41:38;22.20;99.90
21815;DHT22;11069;48.988;8.450;2022-10-26T14:44:15;21.80;99.90
21815;DHT22;11069;48.988;8.450;2022-10-26T14:46:42;21.60;99.90
21815;DHT22;11069;48.988;8.450;2022-10-26T14:49:20;21.40;99.90
21815;DHT22;11069;48.988;8.450;2022-10-26T14:51:47;21.30;99.90
21815;DHT22;11069;48.988;8.450;2022-10-26T14:54:22;21.10;99.90
21815;DHT22;11069;48.988;8.450;2022-10-26T14:56:48;21.00;99.90
21815;DHT22;11069;48.988;8.450;2022-10-26T15:04:39;20.70;99.90
21815;DHT22;11069;48.988;8.450;2022-10-26T15:09:48;20.50;99.90
21815;DHT22;11069;48.988;8.450;2022-10-26T15:12:34;20.40;99.90
21815;DHT22;11069;48.988;8.450;2022-10-26T15:15:21;20.30;99.90
21815;DHT22;11069;48.988;8.450;2022-10-26T15:17:53;20.20;99.90
21815;DHT22;11069;48.988;8.450;2022-10-26T15:20:24;20.20;99.90
21815;DHT22;11069;48.988;8.450;2022-10-26T15:23:01;20.20;99.90
21815;DHT22;11069;48.988;8.450;2022-10-26T15:25:29;20.10;99.90
21815;DHT22;11069;48.988;8.450;2022-10-26T15:28:17;19.90;99.90
21815;DHT22;11069;48.988;8.450;2022-10-26T15:36:23;19.50;99.90
21815;DHT22;11069;48.988;8.450;2022-10-26T15:38:49;19.30;99.90
21815;DHT22;11069;48.988;8.450;2022-10-26T15:41:34;19.10;99.90
21815;DHT22;11069;48.988;8.450;2022-10-26T15:44:03;19.00;99.90
21815;DHT22;11069;48.988;8.450;2022-10-26T15:46:35;18.80;99.90
21815;DHT22;11069;48.988;8.450;2022-10-26T15:49:03;18.70;99.90
21815;DHT22;11069;48.988;8.450;2022-10-26T15:51:29;18.50;99.90
21815;DHT22;11069;48.988;8.450;2022-10-26T15:54:02;18.30;99.90
21815;DHT22;11069;48.988;8.450;2022-10-26T15:56:27;18.20;99.90
21815;DHT22;11069;48.988;8.450;2022-10-26T15:58:55;18.10;99.90
21815;DHT22;11069;48.988;8.450;2022-10-26T16:01:23;18.00;99.90
21815;DHT22;11069;48.988;8.450;2022-10-26T16:03:49;17.90;99.90
21815;DHT22;11069;48.988;8.450;2022-10-26T16:08:55;17.60;99.90
21815;DHT22;11069;48.988;8.450;2022-10-26T16:11:21;17.50;99.90
21815;DHT22;11069;48.988;8.450;2022-10-26T16:13:47;17.50;99.90
21815;DHT22;11069;48.988;8.450;2022-10-26T16:16:17;17.40;99.90
21815;DHT22;11069;48.988;8.450;2022-10-26T16:18:44;17.30;99.90
21815;DHT22;11069;48.988;8.450;2022-10-26T16:21:15;17.20;99.90
21815;DHT22;11069;48.988;8.450;2022-10-26T16:23:41;17.10;99.90
21815;DHT22;11069;48.988;8.450;2022-10-26T16:26:07;17.00;99.90
21815;DHT22;11069;48.988;8.450;2022-10-26T16:28:33;16.90;99.90
21815;DHT22;11069;48.988;8.450;2022-10-26T16:31:00;16.90;99.90
21815;DHT22;11069;48.988;8.450;2022-10-26T16:33:25;16.70;99.90
21815;DHT22;11069;48.988;8.450;2022-10-26T16:35:59;16.60;99.90
21815;DHT22;11069;48.988;8.450;2022-10-26T16:38:25;16.60;99.90
21815;DHT22;11069;48.988;8.450;2022-10-26T16:41:08;16.50;99.90
21815;DHT22;11069;48.988;8.450;2022-10-26T16:43:39;16.40;99.90
21815;DHT22;11069;48.988;8.450;2022-10-26T16:48:37;16.20;99.90
21815;DHT22;11069;48.988;8.450;2022-10-26T16:51:08;16.10;99.90
21815;DHT22;11069;48.988;8.450;2022-10-26T16:53:33;16.00;99.90
21815;DHT22;11069;48.988;8.450;2022-10-26T16:56:08;16.00;99.90
21815;DHT22;11069;48.988;8.450;2022-10-26T16:58:35;15.90;99.90
21815;DHT22;11069;48.988;8.450;2022-10-26T17:01:01;15.90;99.90
21815;DHT22;11069;48.988;8.450;2022-10-26T17:03:26;16.00;99.90
21815;DHT22;11069;48.988;8.450;2022-10-26T17:06:03;16.10;99.90
21815;DHT22;11069;48.988;8.450;2022-10-26T17:08:31;16.00;99.90
21815;DHT22;11069;48.988;8.450;2022-10-26T17:11:26;16.00;99.90
21815;DHT22;11069;48.988;8.450;2022-10-26T17:13:53;15.90;99.90
21815;DHT22;11069;48.988;8.450;2022-10-26T17:16:20;15.70;99.90
21815;DHT22;11069;48.988;8.450;2022-10-26T17:18:47;15.60;99.90
21815;DHT22;11069;48.988;8.450;2022-10-26T17:21:14;15.50;99.90
21815;DHT22;11069;48.988;8.450;2022-10-26T17:23:40;15.40;99.90
21815;DHT22;11069;48.988;8.450;2022-10-26T17:26:09;15.40;99.90
21815;DHT22;11069;48.988;8.450;2022-10-26T17:28:35;15.30;99.90
21815;DHT22;11069;48.988;8.450;2022-10-26T17:31:12;15.40;99.90
21815;DHT22;11069;48.988;8.450;2022-10-26T17:33:40;15.40;99.90
21815;DHT22;11069;48.988;8.450;2022-10-26T17:36:07;15.30;99.90
21815;DHT22;11069;48.988;8.450;2022-10-26T17:38:35;15.30;99.90
21815;DHT22;11069;48.988;8.450;2022-10-26T17:41:03;15.20;99.90
21815;DHT22;11069;48.988;8.450;2022-10-26T17:43:34;15.00;99.90
21815;DHT22;11069;48.988;8.450;2022-10-26T17:46:00;15.00;99.90
21815;DHT22;11069;48.988;8.450;2022-10-26T17:48:26;14.90;99.90
21815;DHT22;11069;48.988;8.450;2022-10-26T17:50:52;14.90;99.90
21815;DHT22;11069;48.988;8.450;2022-10-26T17:53:17;15.00;99.90
21815;DHT22;11069;48.988;8.450;2022-10-26T17:55:43;14.80;99.90
21815;DHT22;11069;48.988;8.450;2022-10-26T17:58:09;14.80;99.90
21815;DHT22;11069;48.988;8.450;2022-10-26T18:00:34;14.80;99.90
21815;DHT22;11069;48.988;8.450;2022-10-26T18:03:00;14.70;99.90
21815;DHT22;11069;48.988;8.450;2022-10-26T18:05:25;14.70;99.90
21815;DHT22;11069;48.988;8.450;2022-10-26T18:07:56;14.70;99.90
21815;DHT22;11069;48.988;8.450;2022-10-26T18:10:21;14.60;99.90
21815;DHT22;11069;48.988;8.450;2022-10-26T18:12:47;14.50;99.90
21815;DHT22;11069;48.988;8.450;2022-10-26T18:15:12;14.40;99.90
21815;DHT22;11069;48.988;8.450;2022-10-26T18:17:38;14.50;99.90
21815;DHT22;11069;48.988;8.450;2022-10-26T18:20:06;14.50;99.90
21815;DHT22;11069;48.988;8.450;2022-10-26T18:22:32;14.50;99.90
21815;DHT22;11069;48.988;8.450;2022-10-26T18:24:58;14.40;99.90
21815;DHT22;11069;48.988;8.450;2022-10-26T18:27:24;14.50;99.90